Time;durP1;ratioP1;P1;durP2;ratioP2;P2;SDS_P1;SDS_P2;PMS_P1;PMS_P2;Temp;Humidity;BMP_temperature;BMP_pressure;BME280_temperature;BME280_humidity;BME280_pressure;Samples;Min_cycle;Max_cycle;Signal;HPM_P1;HPM_P2
2024/02/16 00:01:43;;;;;;;9.07;4.00;;;;;;;;;;5047206;28;20083;-67
2024/02/16 00:04:09;;;;;;;12.52;3.75;;;;;;;;;;5047368;28;20045;-67
2024/02/16 00:06:35;;;;;;;3.90;3.10;;;;;;;;;;5046758;28;20025;-67
2024/02/16 00:09:09;;;;;;;9.95;3.85;;;;;;;;;;5030694;28;20598;-66
2024/02/16 00:11:52;;;;;;;6.10;3.25;;;;;;;;;;5038494;28;20070;-67
2024/02/16 00:14:18;;;;;;;5.72;3.22;;;;;;;;;;5045014;28;20055;-67
2024/02/16 00:16:45;;;;;;;4.85;3.63;;;;;;;;;;5041083;28;20044;-67
2024/02/16 00:19:17;;;;;;;11.23;3.72;;;;;;;;;;5035119;28;20021;-67
2024/02/16 00:21:43;;;;;;;4.45;3.45;;;;;;;;;;5023090;28;20033;-67
2024/02/16 00:24:10;;;;;;;9.15;3.72;;;;;;;;;;5046069;28;20056;-67
2024/02/16 00:26:39;;;;;;;4.50;3.47;;;;;;;;;;5044039;28;20449;-67
2024/02/16 00:29:08;;;;;;;3.88;2.53;;;;;;;;;;5024671;28;20109;-66
2024/02/16 00:31:35;;;;;;;5.88;2.88;;;;;;;;;;5043849;28;20068;-67
2024/02/16 00:34:01;;;;;;;6.53;2.85;;;;;;;;;;5047378;28;20052;-67
2024/02/16 00:36:28;;;;;;;7.57;3.97;;;;;;;;;;5040417;28;20021;-67
2024/02/16 00:38:54;;;;;;;5.47;3.13;;;;;;;;;;5039327;28;20033;-67
2024/02/16 00:41:22;;;;;;;5.60;2.85;;;;;;;;;;5028465;28;20033;-67
2024/02/16 00:43:50;;;;;;;6.72;2.97;;;;;;;;;;5026352;28;20526;-67
2024/02/16 00:46:17;;;;;;;3.70;2.65;;;;;;;;;;5023222;28;20033;-65
2024/02/16 00:48:43;;;;;;;7.97;2.95;;;;;;;;;;5040423;28;20025;-65
2024/02/16 00:51:09;;;;;;;5.25;3.25;;;;;;;;;;5035722;28;20029;-65
2024/02/16 00:53:35;;;;;;;12.18;2.88;;;;;;;;;;5020680;28;20029;-65
2024/02/16 00:56:02;;;;;;;4.05;3.03;;;;;;;;;;5038781;28;20063;-65
2024/02/16 00:58:29;;;;;;;3.92;3.05;;;;;;;;;;5038610;28;20029;-65
2024/02/16 01:00:55;;;;;;;5.90;2.40;;;;;;;;;;5034586;28;20033;-65
2024/02/16 01:03:37;;;;;;;2.20;2.03;;;;;;;;;;5042544;28;20045;-65
2024/02/16 01:06:05;;;;;;;4.30;2.53;;;;;;;;;;5020215;28;20420;-64
2024/02/16 01:08:31;;;;;;;10.13;2.90;;;;;;;;;;5017738;28;20029;-65
2024/02/16 01:10:58;;;;;;;9.73;2.72;;;;;;;;;;5044798;28;20095;-66
2024/02/16 01:13:24;;;;;;;5.15;2.53;;;;;;;;;;5037896;28;20079;-65
2024/02/16 01:15:54;;;;;;;2.50;2.30;;;;;;;;;;5042242;28;20029;-67
2024/02/16 01:18:20;;;;;;;7.78;2.58;;;;;;;;;;5046227;28;20040;-66
2024/02/16 01:20:47;;;;;;;10.18;2.42;;;;;;;;;;5050007;28;20173;-65
2024/02/16 01:23:13;;;;;;;5.82;2.38;;;;;;;;;;5035510;28;20025;-68
2024/02/16 01:25:39;;;;;;;4.18;2.20;;;;;;;;;;5046220;28;20526;-66
2024/02/16 01:28:06;;;;;;;3.90;2.45;;;;;;;;;;5024968;28;20662;-67
2024/02/16 01:30:32;;;;;;;10.30;2.60;;;;;;;;;;5027620;28;20056;-65
2024/02/16 01:32:58;;;;;;;5.70;2.50;;;;;;;;;;5016049;28;20059;-65
2024/02/16 01:35:25;;;;;;;2.55;2.35;;;;;;;;;;5020743;28;20041;-65
2024/02/16 01:37:51;;;;;;;2.95;2.10;;;;;;;;;;5041320;28;20078;-65
2024/02/16 01:40:26;;;;;;;4.90;2.17;;;;;;;;;;5037757;28;20052;-64
2024/02/16 01:42:55;;;;;;;2.53;1.73;;;;;;;;;;5018070;28;20056;-65
2024/02/16 01:45:22;;;;;;;1.80;1.70;;;;;;;;;;5028481;28;20032;-65
2024/02/16 01:47:50;;;;;;;7.03;2.17;;;;;;;;;;5020501;28;20429;-65
2024/02/16 01:50:17;;;;;;;2.65;1.83;;;;;;;;;;5020381;28;20074;-65
2024/02/16 01:52:44;;;;;;;5.10;1.73;;;;;;;;;;5015795;28;20025;-64
2024/02/16 01:55:10;;;;;;;3.72;2.00;;;;;;;;;;5039380;28;20022;-65
2024/02/16 01:57:40;;;;;;;2.03;1.83;;;;;;;;;;5026744;28;20029;-65
2024/02/16 02:00:07;;;;;;;7.22;1.90;;;;;;;;;;5041492;28;20028;-65
2024/02/16 02:02:37;;;;;;;1.63;1.52;;;;;;;;;;5019784;28;20033;-65
2024/02/16 02:05:03;;;;;;;5.35;2.10;;;;;;;;;;5037137;28;20108;-65
2024/02/16 02:07:30;;;;;;;4.55;1.58;;;;;;;;;;5019357;28;20488;-65
2024/02/16 02:09:57;;;;;;;4.30;1.90;;;;;;;;;;5034201;28;20518;-65
2024/02/16 02:12:24;;;;;;;1.75;1.63;;;;;;;;;;5035672;28;20031;-65
2024/02/16 02:14:50;;;;;;;4.88;1.98;;;;;;;;;;5036602;28;20029;-65
2024/02/16 02:17:17;;;;;;;2.63;2.05;;;;;;;;;;5035576;28;20456;-65
2024/02/16 02:19:43;;;;;;;9.15;2.03;;;;;;;;;;5037008;28;20107;-65
2024/02/16 02:22:19;;;;;;;4.53;2.50;;;;;;;;;;5034863;28;20013;-66
2024/02/16 02:24:49;;;;;;;3.03;1.75;;;;;;;;;;5024676;28;20471;-65
2024/02/16 02:27:16;;;;;;;3.55;1.75;;;;;;;;;;5008435;28;20156;-64
2024/02/16 02:29:44;;;;;;;2.95;1.52;;;;;;;;;;5025596;28;20075;-65
2024/02/16 02:32:10;;;;;;;1.95;1.75;;;;;;;;;;5041359;28;20021;-65
2024/02/16 02:34:36;;;;;;;2.28;2.08;;;;;;;;;;5010176;28;20090;-65
2024/02/16 02:37:06;;;;;;;4.78;1.70;;;;;;;;;;5024621;28;20033;-65
2024/02/16 02:39:32;;;;;;;1.90;1.73;;;;;;;;;;5026626;28;20154;-65
2024/02/16 02:41:59;;;;;;;7.10;2.47;;;;;;;;;;5038481;28;20059;-65
2024/02/16 02:44:25;;;;;;;2.35;2.08;;;;;;;;;;5039354;28;20021;-65
2024/02/16 02:46:52;;;;;;;2.20;2.00;;;;;;;;;;5018410;28;20040;-65
2024/02/16 02:49:18;;;;;;;3.65;2.17;;;;;;;;;;5042790;28;20487;-64
2024/02/16 02:51:45;;;;;;;1.90;1.80;;;;;;;;;;5032275;28;20048;-66
2024/02/16 02:54:12;;;;;;;10.75;2.15;;;;;;;;;;5039374;28;20040;-66
2024/02/16 02:56:38;;;;;;;3.17;2.20;;;;;;;;;;5037108;28;20075;-67
2024/02/16 02:59:31;;;;;;;5.18;1.55;;;;;;;;;;5036547;28;20030;-65
2024/02/16 03:01:58;;;;;;;1.58;1.48;;;;;;;;;;5041662;28;20493;-65
2024/02/16 03:04:30;;;;;;;8.25;2.58;;;;;;;;;;5022529;28;20039;-64
2024/02/16 03:06:56;;;;;;;4.82;1.70;;;;;;;;;;5023854;28;20459;-65
2024/02/16 03:09:26;;;;;;;1.60;1.50;;;;;;;;;;5014183;28;20036;-65
2024/02/16 03:12:02;;;;;;;4.97;2.17;;;;;;;;;;5044149;28;20336;-65
2024/02/16 03:14:29;;;;;;;3.13;1.67;;;;;;;;;;5035068;28;20031;-65
2024/02/16 03:16:55;;;;;;;2.45;1.70;;;;;;;;;;5022348;28;20021;-66
2024/02/16 03:19:21;;;;;;;1.63;1.52;;;;;;;;;;5041149;28;20041;-65
2024/02/16 03:21:48;;;;;;;1.75;1.60;;;;;;;;;;5035097;28;20074;-65
2024/02/16 03:24:14;;;;;;;6.18;1.60;;;;;;;;;;5033042;28;20025;-65
2024/02/16 03:26:40;;;;;;;5.40;1.67;;;;;;;;;;5019583;28;20071;-65
2024/02/16 03:29:06;;;;;;;1.63;1.52;;;;;;;;;;5035337;28;20610;-67
2024/02/16 03:31:33;;;;;;;1.92;1.75;;;;;;;;;;5030482;28;21338;-67
2024/02/16 03:34:00;;;;;;;1.90;1.60;;;;;;;;;;5037369;28;20459;-67
2024/02/16 03:36:26;;;;;;;3.05;1.88;;;;;;;;;;5045422;28;20066;-68
2024/02/16 03:38:53;;;;;;;5.47;1.70;;;;;;;;;;5046445;28;20473;-67
2024/02/16 03:41:20;;;;;;;2.17;1.75;;;;;;;;;;5045265;28;20032;-68
2024/02/16 03:43:46;;;;;;;4.45;1.75;;;;;;;;;;5044044;28;20036;-67
2024/02/16 03:46:12;;;;;;;3.90;1.60;;;;;;;;;;5026778;28;20021;-67
2024/02/16 03:48:40;;;;;;;3.45;1.70;;;;;;;;;;5041623;28;20025;-67
2024/02/16 03:51:07;;;;;;;5.13;1.30;;;;;;;;;;5028185;28;20124;-67
2024/02/16 03:53:34;;;;;;;1.67;1.50;;;;;;;;;;5026787;28;20033;-66
2024/02/16 03:56:00;;;;;;;5.72;2.00;;;;;;;;;;5043846;28;20040;-67
2024/02/16 03:58:27;;;;;;;4.35;2.25;;;;;;;;;;5028360;28;20661;-67
2024/02/16 04:00:53;;;;;;;9.48;2.40;;;;;;;;;;5029581;28;20032;-66
2024/02/16 04:03:20;;;;;;;2.40;1.90;;;;;;;;;;5038166;28;20531;-68
2024/02/16 04:05:49;;;;;;;6.07;1.80;;;;;;;;;;5026891;28;20052;-66
2024/02/16 04:08:16;;;;;;;3.50;2.13;;;;;;;;;;5023941;28;20194;-67
2024/02/16 04:10:42;;;;;;;2.50;1.70;;;;;;;;;;5026622;28;20036;-67
2024/02/16 04:13:09;;;;;;;2.67;1.88;;;;;;;;;;5017113;28;20029;-67
2024/02/16 04:15:35;;;;;;;4.82;1.85;;;;;;;;;;5023534;28;20032;-67
2024/02/16 04:18:02;;;;;;;1.70;1.60;;;;;;;;;;5042430;28;20033;-67
2024/02/16 04:20:28;;;;;;;2.72;1.95;;;;;;;;;;5030414;28;20078;-68
2024/02/16 04:22:54;;;;;;;3.67;1.88;;;;;;;;;;5026525;28;20560;-67
2024/02/16 04:25:20;;;;;;;1.58;1.48;;;;;;;;;;5046322;28;20048;-64
2024/02/16 04:27:47;;;;;;;4.70;1.48;;;;;;;;;;5029353;28;20035;-65
2024/02/16 04:30:13;;;;;;;1.50;1.40;;;;;;;;;;5046942;28;20948;-65
2024/02/16 04:32:39;;;;;;;3.05;1.60;;;;;;;;;;5041170;28;20245;-64
2024/02/16 04:35:06;;;;;;;1.70;1.45;;;;;;;;;;5038407;28;20025;-65
2024/02/16 04:37:32;;;;;;;1.40;1.33;;;;;;;;;;5024430;28;20629;-67
2024/02/16 04:40:00;;;;;;;1.83;1.73;;;;;;;;;;5047715;28;20484;-67
2024/02/16 04:42:26;;;;;;;4.88;1.73;;;;;;;;;;5019715;28;20053;-67
2024/02/16 04:44:53;;;;;;;2.30;1.77;;;;;;;;;;5016882;28;20037;-67
2024/02/16 04:47:19;;;;;;;2.83;1.70;;;;;;;;;;5045062;28;20071;-67
2024/02/16 04:49:54;;;;;;;1.70;1.60;;;;;;;;;;5015415;28;20083;-67
2024/02/16 04:52:24;;;;;;;1.50;1.42;;;;;;;;;;5041921;28;20055;-67
2024/02/16 04:54:50;;;;;;;4.82;1.33;;;;;;;;;;5046463;28;20017;-68
2024/02/16 04:57:16;;;;;;;1.65;1.55;;;;;;;;;;5041224;28;20378;-67
2024/02/16 04:59:43;;;;;;;1.85;1.60;;;;;;;;;;5020903;28;20102;-67
2024/02/16 05:02:10;;;;;;;2.40;1.50;;;;;;;;;;5024878;28;20064;-67
2024/02/16 05:04:36;;;;;;;4.93;2.00;;;;;;;;;;5041105;28;20033;-65
2024/02/16 05:07:02;;;;;;;3.45;1.60;;;;;;;;;;5029023;28;20024;-65
2024/02/16 05:09:35;;;;;;;4.30;1.73;;;;;;;;;;5023271;28;20025;-65
2024/02/16 05:12:05;;;;;;;7.13;1.85;;;;;;;;;;5047938;28;20488;-64
2024/02/16 05:14:32;;;;;;;2.33;1.70;;;;;;;;;;5042681;28;20424;-65
2024/02/16 05:16:58;;;;;;;2.88;2.15;;;;;;;;;;5020115;28;20033;-64
2024/02/16 05:19:24;;;;;;;3.00;1.83;;;;;;;;;;5039564;28;20025;-65
2024/02/16 05:21:51;;;;;;;3.88;2.63;;;;;;;;;;5038464;28;20051;-65
2024/02/16 05:24:18;;;;;;;1.77;1.67;;;;;;;;;;5042307;28;20373;-64
2024/02/16 05:26:45;;;;;;;3.45;1.90;;;;;;;;;;5020258;28;20473;-65
2024/02/16 05:29:11;;;;;;;3.22;2.47;;;;;;;;;;5043467;28;20691;-65
2024/02/16 05:31:38;;;;;;;2.45;1.90;;;;;;;;;;5019586;28;20068;-64
2024/02/16 05:34:04;;;;;;;5.63;2.30;;;;;;;;;;5036619;28;20489;-65
2024/02/16 05:36:35;;;;;;;2.28;2.08;;;;;;;;;;5039458;28;20060;-65
2024/02/16 05:42:08;;;;;;;1.55;1.45;;;;;;;;;;5006063;28;20134;-64
2024/02/16 05:44:34;;;;;;;5.70;1.80;;;;;;;;;;5022869;28;20075;-67
2024/02/16 05:47:03;;;;;;;3.22;2.13;;;;;;;;;;5046295;28;20021;-67
2024/02/16 05:49:30;;;;;;;4.40;2.53;;;;;;;;;;5043530;28;20431;-67
2024/02/16 05:54:41;;;;;;;1.58;1.48;;;;;;;;;;5039583;28;20036;-67
2024/02/16 05:57:08;;;;;;;2.28;1.70;;;;;;;;;;5038528;28;20033;-69
2024/02/16 05:59:37;;;;;;;1.70;1.60;;;;;;;;;;5039425;28;20033;-64
2024/02/16 06:02:03;;;;;;;1.65;1.55;;;;;;;;;;5024163;28;20036;-64
2024/02/16 06:04:30;;;;;;;1.60;1.50;;;;;;;;;;5016015;28;20105;-65
2024/02/16 06:06:56;;;;;;;6.32;1.50;;;;;;;;;;5040873;28;20070;-65
2024/02/16 06:09:23;;;;;;;2.88;2.05;;;;;;;;;;5023072;28;20059;-64
2024/02/16 06:11:49;;;;;;;2.53;1.40;;;;;;;;;;5040478;28;20095;-65
2024/02/16 06:14:22;;;;;;;1.55;1.45;;;;;;;;;;5022485;28;20563;-65
2024/02/16 06:16:51;;;;;;;1.67;1.58;;;;;;;;;;5043399;28;20020;-64
2024/02/16 06:19:18;;;;;;;1.70;1.60;;;;;;;;;;5034978;28;20028;-64
2024/02/16 06:21:44;;;;;;;2.08;1.50;;;;;;;;;;5035797;28;20481;-64
2024/02/16 06:24:10;;;;;;;2.58;2.33;;;;;;;;;;5031936;28;20366;-64
2024/02/16 06:26:37;;;;;;;5.05;1.58;;;;;;;;;;5041772;28;20033;-65
2024/02/16 06:29:05;;;;;;;1.70;1.60;;;;;;;;;;5039467;28;20404;-64
2024/02/16 06:31:33;;;;;;;3.15;1.70;;;;;;;;;;5017460;28;20124;-65
2024/02/16 06:34:00;;;;;;;1.90;1.77;;;;;;;;;;5030705;28;20052;-64
2024/02/16 06:36:30;;;;;;;1.42;1.33;;;;;;;;;;5018409;28;20079;-65
2024/02/16 06:38:57;;;;;;;2.92;1.75;;;;;;;;;;5040962;28;20044;-65
2024/02/16 06:41:26;;;;;;;1.58;1.48;;;;;;;;;;5038393;28;20029;-66
2024/02/16 06:43:52;;;;;;;1.20;1.20;;;;;;;;;;5021564;28;21267;-67
2024/02/16 06:46:19;;;;;;;4.15;1.30;;;;;;;;;;5041591;28;20501;-67
2024/02/16 06:48:45;;;;;;;1.60;1.50;;;;;;;;;;5039146;28;20023;-67
2024/02/16 06:51:12;;;;;;;2.13;1.60;;;;;;;;;;5023190;28;20071;-64
2024/02/16 06:53:38;;;;;;;1.30;1.20;;;;;;;;;;5021861;28;20032;-65
2024/02/16 06:56:05;;;;;;;1.50;1.40;;;;;;;;;;5021934;28;20032;-64
2024/02/16 06:58:31;;;;;;;1.52;1.42;;;;;;;;;;5017439;28;20065;-64
2024/02/16 07:01:02;;;;;;;1.38;1.30;;;;;;;;;;5019261;28;20033;-64
2024/02/16 07:03:29;;;;;;;1.42;1.33;;;;;;;;;;5039926;28;20533;-64
2024/02/16 07:05:55;;;;;;;1.50;1.33;;;;;;;;;;5038924;28;20083;-64
2024/02/16 07:08:23;;;;;;;1.27;1.27;;;;;;;;;;5022294;28;20056;-64
2024/02/16 07:10:52;;;;;;;1.52;1.42;;;;;;;;;;5019980;28;20025;-64
2024/02/16 07:13:19;;;;;;;2.00;1.40;;;;;;;;;;5034852;28;20083;-64
2024/02/16 07:15:45;;;;;;;1.35;1.30;;;;;;;;;;5018911;28;20028;-64
2024/02/16 07:18:12;;;;;;;1.38;1.38;;;;;;;;;;5019769;28;20392;-64
2024/02/16 07:20:39;;;;;;;1.65;1.38;;;;;;;;;;5020572;28;20496;-64
2024/02/16 07:23:05;;;;;;;1.50;1.40;;;;;;;;;;5018452;28;20028;-64
2024/02/16 07:25:31;;;;;;;5.07;1.80;;;;;;;;;;5022695;28;20102;-65
2024/02/16 07:27:58;;;;;;;1.30;1.25;;;;;;;;;;5039354;28;20028;-64
2024/02/16 07:30:24;;;;;;;1.77;1.50;;;;;;;;;;5036342;28;20080;-64
2024/02/16 07:32:54;;;;;;;1.38;1.30;;;;;;;;;;5037765;28;20029;-64
2024/02/16 07:35:24;;;;;;;1.40;1.30;;;;;;;;;;5021472;28;20159;-64
2024/02/16 07:37:53;;;;;;;2.30;1.58;;;;;;;;;;5005294;28;20747;-65
2024/02/16 07:40:20;;;;;;;1.63;1.52;;;;;;;;;;5027152;28;20059;-65
2024/02/16 07:42:46;;;;;;;4.00;1.60;;;;;;;;;;5038243;28;20404;-63
2024/02/16 07:45:12;;;;;;;1.75;1.23;;;;;;;;;;5035990;28;20096;-64
2024/02/16 07:47:41;;;;;;;1.65;1.52;;;;;;;;;;5035586;28;20035;-66
2024/02/16 07:50:07;;;;;;;1.50;1.40;;;;;;;;;;5020528;28;20464;-66
2024/02/16 07:52:33;;;;;;;2.40;1.20;;;;;;;;;;5037780;28;20025;-66
2024/02/16 07:55:00;;;;;;;1.23;1.17;;;;;;;;;;5037552;28;20544;-66
2024/02/16 07:57:26;;;;;;;3.45;1.75;;;;;;;;;;5023835;28;20071;-66
2024/02/16 07:59:53;;;;;;;1.48;1.38;;;;;;;;;;5042410;28;20033;-66
2024/02/16 08:02:19;;;;;;;1.30;1.30;;;;;;;;;;5042864;28;20021;-66
2024/02/16 08:04:50;;;;;;;1.45;1.38;;;;;;;;;;5023464;28;21297;-66
2024/02/16 08:07:16;;;;;;;1.48;1.38;;;;;;;;;;5042234;28;20013;-66
2024/02/16 08:09:46;;;;;;;1.73;1.30;;;;;;;;;;5024202;28;20395;-68
2024/02/16 08:12:12;;;;;;;1.77;1.67;;;;;;;;;;5041697;28;20017;-68
2024/02/16 08:14:42;;;;;;;1.60;1.50;;;;;;;;;;5042075;28;20476;-69
2024/02/16 08:17:12;;;;;;;1.75;1.65;;;;;;;;;;5037081;28;20661;-64
2024/02/16 08:19:39;;;;;;;3.17;1.23;;;;;;;;;;5028484;28;20124;-63
2024/02/16 08:22:07;;;;;;;2.35;1.63;;;;;;;;;;5032113;28;20033;-70
2024/02/16 08:24:37;;;;;;;1.17;1.17;;;;;;;;;;5024236;28;20032;-67
2024/02/16 08:27:04;;;;;;;1.55;1.45;;;;;;;;;;5036773;28;20292;-72
2024/02/16 08:29:30;;;;;;;2.75;1.60;;;;;;;;;;5038882;28;20073;-67
2024/02/16 08:31:57;;;;;;;7.05;1.42;;;;;;;;;;5034854;28;20029;-65
2024/02/16 08:34:26;;;;;;;1.48;1.17;;;;;;;;;;5020852;28;20041;-69
2024/02/16 08:36:52;;;;;;;1.35;1.25;;;;;;;;;;5034930;28;20033;-68
2024/02/16 08:39:24;;;;;;;1.30;1.30;;;;;;;;;;5023975;28;20025;-68
2024/02/16 08:41:51;;;;;;;1.65;1.55;;;;;;;;;;5036505;28;20116;-67
2024/02/16 08:44:18;;;;;;;1.40;1.30;;;;;;;;;;5037553;28;20029;-67
2024/02/16 08:46:46;;;;;;;1.50;1.40;;;;;;;;;;5023667;28;20104;-63
2024/02/16 08:49:12;;;;;;;1.10;1.10;;;;;;;;;;5035176;28;20041;-63
2024/02/16 08:51:38;;;;;;;1.33;1.33;;;;;;;;;;5033984;28;20496;-64
2024/02/16 08:54:04;;;;;;;1.55;1.45;;;;;;;;;;5031919;28;20119;-65
2024/02/16 08:56:31;;;;;;;1.35;1.27;;;;;;;;;;5015352;28;20030;-64
2024/02/16 08:58:57;;;;;;;1.33;1.23;;;;;;;;;;5032106;28;20033;-64
2024/02/16 09:01:33;;;;;;;1.10;1.10;;;;;;;;;;5028803;28;20197;-64
2024/02/16 09:04:00;;;;;;;1.13;1.13;;;;;;;;;;5032605;28;20285;-65
2024/02/16 09:06:26;;;;;;;1.20;1.20;;;;;;;;;;5029760;28;20025;-65
2024/02/16 09:08:52;;;;;;;1.20;1.20;;;;;;;;;;5038680;28;20048;-65
2024/02/16 09:11:19;;;;;;;1.45;1.35;;;;;;;;;;5022391;28;20447;-65
2024/02/16 09:13:45;;;;;;;1.85;1.48;;;;;;;;;;5020240;28;20143;-63
2024/02/16 09:16:14;;;;;;;1.73;1.63;;;;;;;;;;5025772;28;20033;-64
2024/02/16 09:18:41;;;;;;;1.80;1.70;;;;;;;;;;5024436;28;20035;-66
2024/02/16 09:21:07;;;;;;;1.58;1.48;;;;;;;;;;5020875;28;20092;-65
2024/02/16 09:23:34;;;;;;;1.40;1.30;;;;;;;;;;5038212;28;20037;-65
2024/02/16 09:26:00;;;;;;;1.52;1.42;;;;;;;;;;5035549;28;20036;-66
2024/02/16 09:28:27;;;;;;;1.35;1.27;;;;;;;;;;5021890;28;20029;-65
2024/02/16 09:30:54;;;;;;;1.25;1.23;;;;;;;;;;5015872;28;20045;-65
2024/02/16 09:33:21;;;;;;;1.33;1.23;;;;;;;;;;4996032;28;20042;-66
2024/02/16 09:35:48;;;;;;;2.10;2.00;;;;;;;;;;4995093;28;20036;-62
2024/02/16 09:38:14;;;;;;;1.20;1.20;;;;;;;;;;5015026;28;20055;-64
2024/02/16 09:40:40;;;;;;;1.10;1.10;;;;;;;;;;5015469;28;20033;-64
2024/02/16 09:43:07;;;;;;;1.50;1.40;;;;;;;;;;5013726;28;20575;-65
2024/02/16 09:45:33;;;;;;;2.45;1.65;;;;;;;;;;5012349;28;20098;-65
2024/02/16 09:48:00;;;;;;;1.35;1.30;;;;;;;;;;5017507;28;20064;-63
2024/02/16 09:50:29;;;;;;;2.33;1.90;;;;;;;;;;5017065;28;20075;-65
2024/02/16 09:52:55;;;;;;;1.33;1.23;;;;;;;;;;5011734;28;20029;-65
2024/02/16 09:55:22;;;;;;;1.75;1.52;;;;;;;;;;5019307;28;20021;-64
2024/02/16 09:57:58;;;;;;;2.17;1.30;;;;;;;;;;4998931;28;20087;-65
2024/02/16 10:00:25;;;;;;;4.30;1.40;;;;;;;;;;4997683;28;20029;-65
2024/02/16 10:02:51;;;;;;;1.58;1.48;;;;;;;;;;5018234;28;20037;-65
2024/02/16 10:05:18;;;;;;;3.28;1.98;;;;;;;;;;5015344;28;20414;-67
2024/02/16 10:07:44;;;;;;;1.70;1.60;;;;;;;;;;5018073;28;20091;-65
2024/02/16 10:10:22;;;;;;;2.47;1.20;;;;;;;;;;5016433;28;20532;-64
2024/02/16 10:12:49;;;;;;;1.48;1.38;;;;;;;;;;5008690;28;20133;-64
2024/02/16 10:15:23;;;;;;;1.90;1.20;;;;;;;;;;5009654;28;20021;-63
2024/02/16 10:18:01;;;;;;;3.72;1.27;;;;;;;;;;4998463;28;20025;-62
2024/02/16 10:20:27;;;;;;;1.00;1.00;;;;;;;;;;5013417;28;20034;-63
2024/02/16 10:23:10;;;;;;;1.30;1.20;;;;;;;;;;5019587;28;20029;-65
2024/02/16 10:25:37;;;;;;;1.33;1.33;;;;;;;;;;5008604;28;20017;-64
2024/02/16 10:28:07;;;;;;;1.25;1.25;;;;;;;;;;5008793;28;20053;-65
2024/02/16 10:30:37;;;;;;;1.80;1.70;;;;;;;;;;5025136;28;20072;-63
2024/02/16 10:33:04;;;;;;;1.00;1.00;;;;;;;;;;5031205;28;20037;-64
2024/02/16 10:35:30;;;;;;;1.38;1.27;;;;;;;;;;5012757;28;20040;-64
2024/02/16 10:37:58;;;;;;;1.20;1.20;;;;;;;;;;5015927;28;20485;-64
2024/02/16 10:40:24;;;;;;;1.27;1.27;;;;;;;;;;5034511;28;20025;-64
2024/02/16 10:42:51;;;;;;;1.10;1.10;;;;;;;;;;5031130;28;20025;-64
2024/02/16 10:45:21;;;;;;;1.33;1.23;;;;;;;;;;5030108;28;20597;-64
2024/02/16 10:47:47;;;;;;;1.15;1.15;;;;;;;;;;5029312;28;20040;-64
2024/02/16 10:50:13;;;;;;;2.50;1.40;;;;;;;;;;5030603;28;20149;-64
2024/02/16 10:52:42;;;;;;;1.30;1.20;;;;;;;;;;5030647;28;20021;-64
2024/02/16 10:55:08;;;;;;;1.10;1.10;;;;;;;;;;5032800;28;20033;-64
2024/02/16 10:57:40;;;;;;;1.80;1.40;;;;;;;;;;5036452;28;20033;-66
2024/02/16 11:00:20;;;;;;;1.73;1.27;;;;;;;;;;5018451;28;20629;-69
2024/02/16 11:02:58;;;;;;;2.10;2.00;;;;;;;;;;5021106;28;20047;-70
2024/02/16 11:05:34;;;;;;;1.20;1.20;;;;;;;;;;5017519;28;20130;-72
2024/02/16 11:08:04;;;;;;;1.77;1.67;;;;;;;;;;5035231;28;20384;-69
2024/02/16 11:10:36;;;;;;;2.70;1.40;;;;;;;;;;5025884;28;20033;-70
2024/02/16 11:13:04;;;;;;;1.40;1.30;;;;;;;;;;5039861;28;20477;-72
2024/02/16 11:15:33;;;;;;;2.25;1.60;;;;;;;;;;5038866;28;20045;-69
2024/02/16 11:18:03;;;;;;;1.98;1.83;;;;;;;;;;5036114;28;20025;-70
2024/02/16 11:20:39;;;;;;;5.55;1.90;;;;;;;;;;5039323;28;20095;-70
2024/02/16 11:23:17;;;;;;;1.20;1.20;;;;;;;;;;5035421;28;20025;-70
2024/02/16 11:25:51;;;;;;;1.20;1.20;;;;;;;;;;5039369;28;20501;-70
2024/02/16 11:28:17;;;;;;;1.80;1.52;;;;;;;;;;5034720;28;20025;-69
2024/02/16 11:30:43;;;;;;;3.13;1.90;;;;;;;;;;5032350;28;20053;-68
2024/02/16 11:33:12;;;;;;;1.63;1.52;;;;;;;;;;5037924;28;20051;-67
2024/02/16 11:35:39;;;;;;;1.60;1.50;;;;;;;;;;5037711;28;20566;-71
2024/02/16 11:38:05;;;;;;;1.67;1.58;;;;;;;;;;5040637;28;20032;-73
2024/02/16 11:40:31;;;;;;;1.50;1.40;;;;;;;;;;5037861;28;20206;-69
2024/02/16 11:42:58;;;;;;;1.70;1.33;;;;;;;;;;5020332;28;20503;-69
2024/02/16 11:45:25;;;;;;;1.92;1.25;;;;;;;;;;5020319;28;20053;-73
2024/02/16 11:47:51;;;;;;;2.05;1.27;;;;;;;;;;5032746;28;20029;-70
2024/02/16 11:50:19;;;;;;;1.30;1.20;;;;;;;;;;5037456;28;20523;-72
2024/02/16 11:52:47;;;;;;;3.88;1.55;;;;;;;;;;5014557;28;20033;-69
2024/02/16 11:55:15;;;;;;;1.30;1.30;;;;;;;;;;5043908;28;20256;-70
2024/02/16 11:57:42;;;;;;;1.77;1.30;;;;;;;;;;5024536;28;20519;-70
2024/02/16 12:00:10;;;;;;;1.60;1.50;;;;;;;;;;5027132;28;20037;-71
2024/02/16 12:02:37;;;;;;;2.00;1.33;;;;;;;;;;5037981;28;20126;-70
2024/02/16 12:05:03;;;;;;;1.15;1.15;;;;;;;;;;5037324;28;20025;-69
2024/02/16 12:07:42;;;;;;;1.10;1.10;;;;;;;;;;5035223;28;20652;-70
2024/02/16 12:10:09;;;;;;;3.20;1.25;;;;;;;;;;5038935;28;20113;-69
2024/02/16 12:12:35;;;;;;;2.22;1.20;;;;;;;;;;5039643;28;20017;-69
2024/02/16 12:15:01;;;;;;;1.38;1.30;;;;;;;;;;5022776;28;20396;-69
2024/02/16 12:17:27;;;;;;;1.13;1.10;;;;;;;;;;5040407;28;20029;-70
2024/02/16 12:19:54;;;;;;;5.72;1.50;;;;;;;;;;5039609;28;20044;-70
2024/02/16 12:22:21;;;;;;;2.67;2.13;;;;;;;;;;5038877;28;20152;-70
2024/02/16 12:24:48;;;;;;;4.03;1.40;;;;;;;;;;5025899;28;20581;-70
2024/02/16 12:27:15;;;;;;;3.95;1.50;;;;;;;;;;5036571;28;20025;-70
2024/02/16 12:29:41;;;;;;;4.78;1.50;;;;;;;;;;5041699;28;20476;-69
2024/02/16 12:32:09;;;;;;;1.15;1.15;;;;;;;;;;5044994;28;20029;-71
2024/02/16 12:34:39;;;;;;;1.80;1.50;;;;;;;;;;5027609;28;20036;-65
2024/02/16 12:37:11;;;;;;;1.05;1.05;;;;;;;;;;5039231;28;20443;-66
2024/02/16 12:39:37;;;;;;;1.50;1.40;;;;;;;;;;5038185;28;20037;-64
2024/02/16 12:42:04;;;;;;;3.05;1.50;;;;;;;;;;5035646;28;20493;-64
2024/02/16 12:44:33;;;;;;;1.30;1.30;;;;;;;;;;5036662;28;20084;-64
2024/02/16 12:46:59;;;;;;;2.33;2.03;;;;;;;;;;5014972;28;20024;-66
2024/02/16 12:49:25;;;;;;;1.58;1.48;;;;;;;;;;5028049;28;20057;-65
2024/02/16 12:51:52;;;;;;;1.30;1.20;;;;;;;;;;5015743;28;20086;-65
2024/02/16 12:54:22;;;;;;;3.33;1.40;;;;;;;;;;5036705;28;20094;-66
2024/02/16 12:56:49;;;;;;;3.92;1.42;;;;;;;;;;5020601;28;20127;-67
2024/02/16 12:59:15;;;;;;;2.88;1.40;;;;;;;;;;5034916;28;20142;-66
2024/02/16 13:01:45;;;;;;;1.92;1.25;;;;;;;;;;5031947;28;20707;-66
2024/02/16 13:04:13;;;;;;;1.83;1.30;;;;;;;;;;5036422;28;20017;-66
2024/02/16 13:06:39;;;;;;;4.57;1.40;;;;;;;;;;5016704;28;20037;-66
2024/02/16 13:09:05;;;;;;;1.48;1.38;;;;;;;;;;5037536;28;20060;-66
2024/02/16 13:11:33;;;;;;;1.55;1.45;;;;;;;;;;5034803;28;20057;-65
2024/02/16 13:14:00;;;;;;;2.65;1.60;;;;;;;;;;5041233;28;20404;-68
2024/02/16 13:16:26;;;;;;;1.33;1.33;;;;;;;;;;5037980;28;20029;-66
2024/02/16 13:18:52;;;;;;;3.72;1.73;;;;;;;;;;5015393;28;20048;-67
2024/02/16 13:21:18;;;;;;;1.38;1.27;;;;;;;;;;5034677;28;20060;-67
2024/02/16 13:23:45;;;;;;;1.50;1.40;;;;;;;;;;5020668;28;20033;-66
2024/02/16 13:26:11;;;;;;;2.13;1.55;;;;;;;;;;5013169;28;20052;-66
2024/02/16 13:28:37;;;;;;;4.97;1.30;;;;;;;;;;5029734;28;20472;-67
2024/02/16 13:31:03;;;;;;;4.47;1.63;;;;;;;;;;5035691;28;20049;-67
2024/02/16 13:33:30;;;;;;;1.48;1.38;;;;;;;;;;5033667;28;20591;-65
2024/02/16 13:35:56;;;;;;;2.88;1.30;;;;;;;;;;5035725;28;20403;-65
2024/02/16 13:38:22;;;;;;;2.97;1.40;;;;;;;;;;5023924;28;20021;-66
2024/02/16 13:40:51;;;;;;;3.53;1.70;;;;;;;;;;5031415;28;20918;-65
2024/02/16 13:43:18;;;;;;;1.40;1.30;;;;;;;;;;5023308;28;20096;-66
2024/02/16 13:45:53;;;;;;;2.65;1.50;;;;;;;;;;5042406;28;20109;-66
2024/02/16 13:48:20;;;;;;;3.78;1.80;;;;;;;;;;5024431;28;20237;-66
2024/02/16 13:50:46;;;;;;;4.05;1.50;;;;;;;;;;5037293;28;20417;-68
2024/02/16 13:53:14;;;;;;;1.30;1.30;;;;;;;;;;5040099;28;20474;-65
2024/02/16 13:55:43;;;;;;;2.35;1.42;;;;;;;;;;5021948;28;20420;-65
2024/02/16 13:58:10;;;;;;;2.92;1.70;;;;;;;;;;5014001;28;20040;-66
2024/02/16 14:00:36;;;;;;;1.50;1.33;;;;;;;;;;5035620;28;20057;-65
2024/02/16 14:03:03;;;;;;;5.32;1.85;;;;;;;;;;5034983;28;20026;-65
2024/02/16 14:05:30;;;;;;;2.75;1.65;;;;;;;;;;5034631;28;20028;-66
2024/02/16 14:07:56;;;;;;;5.15;1.70;;;;;;;;;;5039460;28;20516;-66
2024/02/16 14:10:22;;;;;;;6.90;1.90;;;;;;;;;;5004788;28;20066;-64
2024/02/16 14:12:48;;;;;;;2.20;1.50;;;;;;;;;;5037322;28;20120;-63
2024/02/16 14:15:15;;;;;;;2.65;1.80;;;;;;;;;;5019056;28;20688;-62
2024/02/16 14:17:43;;;;;;;5.93;1.92;;;;;;;;;;5038247;28;20037;-63
2024/02/16 14:20:09;;;;;;;1.50;1.40;;;;;;;;;;5040455;28;20047;-64
2024/02/16 14:22:35;;;;;;;2.83;1.95;;;;;;;;;;5037246;28;20381;-68
2024/02/16 14:25:01;;;;;;;2.85;1.90;;;;;;;;;;5031447;28;20359;-65
2024/02/16 14:27:29;;;;;;;4.60;1.42;;;;;;;;;;5033953;28;20071;-65
2024/02/16 14:29:55;;;;;;;5.18;1.58;;;;;;;;;;5030616;28;20045;-64
2024/02/16 14:32:21;;;;;;;4.10;2.08;;;;;;;;;;5031951;28;20530;-66
2024/02/16 14:34:48;;;;;;;4.18;1.52;;;;;;;;;;5031600;28;20508;-68
2024/02/16 14:37:14;;;;;;;9.02;2.15;;;;;;;;;;5035320;28;20101;-65
2024/02/16 14:39:40;;;;;;;1.75;1.63;;;;;;;;;;5020596;28;20037;-65
2024/02/16 14:42:10;;;;;;;3.53;1.80;;;;;;;;;;5041137;28;20382;-66
2024/02/16 14:44:36;;;;;;;3.92;1.15;;;;;;;;;;5020396;28;20068;-64
2024/02/16 14:47:02;;;;;;;6.95;1.48;;;;;;;;;;5038762;28;20397;-64
2024/02/16 14:49:31;;;;;;;7.65;1.83;;;;;;;;;;5030990;28;20541;-64
2024/02/16 14:51:57;;;;;;;1.88;1.58;;;;;;;;;;5034764;28;20086;-65